Terminal Aerodrome Forecast
Issued by NWS Binghamton, NY

Home | Current Version | Previous Version | Text Only | Print | Product List | Glossary On
Versions: 1 2 3 4 5 6 7 8 9 10 11 12 13 14 15 16 17
000
FTUS41 KBGM 191741
TAFSYR
TAF
KSYR 191741Z 1918/2018 10010KT P6SM BKN250
     FM200400 12012G22KT P6SM OVC100
     FM200800 12015G28KT P6SM -RA OVC040
     FM201400 14018G28KT 5SM -SHRA BR OVC025=

USA.gov is the U.S. government's official web portal to all federal, state and local government web resources and services.